Time,TemperatureF,DewpointF,PressureIn,WindDirection,WindDirectionDegrees,WindSpeedMPH,WindSpeedGustMPH,Humidity,HourlyPrecipIn,Conditions,Clouds,dailyrainin,SoftwareType,DateUTC
2013-01-08 00:02:00,39.0,25.0,30.03,South,190,5.0,7.0,57,0.00,,,0.00,,2013-01-08 06:02:00,
2013-01-08 00:12:00,39.0,25.0,30.03,South,190,5.0,7.0,57,0.00,,,0.00,,2013-01-08 06:12:00,
2013-01-08 00:22:00,39.0,25.0,30.03,SSW,210,10.0,10.0,57,0.00,,,0.00,,2013-01-08 06:22:00,
2013-01-08 00:33:00,39.0,25.0,30.04,SSW,212,3.0,8.0,58,0.00,,,0.00,,2013-01-08 06:33:00,
2013-01-08 00:42:00,39.0,25.0,30.04,SSW,212,3.0,8.0,58,0.00,,,0.00,,2013-01-08 06:42:00,
2013-01-08 00:53:00,39.0,25.0,30.02,SSW,205,5.0,7.0,58,0.00,,,0.00,,2013-01-08 06:53:00,
2013-01-08 01:02:00,38.0,25.0,30.03,SSW,198,5.0,8.0,59,0.00,,,0.00,,2013-01-08 07:02:00,
2013-01-08 01:12:00,38.0,25.0,30.03,SSW,198,5.0,8.0,59,0.00,,,0.00,,2013-01-08 07:12:00,
2013-01-08 01:22:00,38.0,25.0,30.03,SSW,213,5.0,7.0,59,0.00,,,0.00,,2013-01-08 07:22:00,
2013-01-08 01:32:00,38.0,25.0,30.03,SSW,208,4.0,8.0,60,0.00,,,0.00,,2013-01-08 07:32:00,
2013-01-08 01:42:00,38.0,25.0,30.03,SSW,208,4.0,8.0,60,0.00,,,0.00,,2013-01-08 07:42:00,
2013-01-08 01:52:00,38.0,25.0,30.04,SSW,203,6.0,8.0,60,0.00,,,0.00,,2013-01-08 07:52:00,
2013-01-08 02:02:00,38.0,26.0,30.03,SSW,203,5.0,8.0,61,0.00,,,0.00,,2013-01-08 08:02:00,
2013-01-08 02:12:00,38.0,26.0,30.03,SSW,203,5.0,8.0,61,0.00,,,0.00,,2013-01-08 08:12:00,
2013-01-08 02:22:00,38.0,26.0,30.03,SW,214,6.0,8.0,61,0.00,,,0.00,,2013-01-08 08:22:00,
2013-01-08 02:32:00,38.0,26.0,30.03,SSW,211,6.0,9.0,62,0.00,,,0.00,,2013-01-08 08:32:00,
2013-01-08 02:42:00,38.0,26.0,30.03,SSW,211,6.0,9.0,62,0.00,,,0.00,,2013-01-08 08:42:00,
2013-01-08 02:53:00,38.0,26.0,30.03,SSW,202,4.0,9.0,62,0.00,,,0.00,,2013-01-08 08:53:00,
2013-01-08 03:02:00,38.0,27.0,30.03,SSW,213,7.0,9.0,63,0.00,,,0.00,,2013-01-08 09:02:00,
2013-01-08 03:12:00,38.0,27.0,30.06,SSW,206,3.0,8.0,63,0.00,,,0.00,,2013-01-08 09:12:00,
2013-01-08 03:22:00,38.0,27.0,30.06,SSW,206,3.0,8.0,63,0.00,,,0.00,,2013-01-08 09:22:00,
2013-01-08 03:32:00,37.0,26.0,30.03,SSW,199,7.0,7.0,64,0.00,,,0.00,,2013-01-08 09:32:00,
2013-01-08 03:42:00,37.0,26.0,30.03,SSW,199,7.0,7.0,64,0.00,,,0.00,,2013-01-08 09:42:00,
2013-01-08 03:52:00,37.0,26.0,30.04,SSW,197,6.0,8.0,65,0.00,,,0.00,,2013-01-08 09:52:00,
2013-01-08 04:02:00,37.0,26.0,30.03,SSW,206,6.0,11.0,65,0.00,,,0.00,,2013-01-08 10:02:00,
2013-01-08 04:12:00,37.0,26.0,30.03,SSW,206,6.0,11.0,65,0.00,,,0.00,,2013-01-08 10:12:00,
2013-01-08 04:22:00,37.0,27.0,30.03,SSW,208,10.0,14.0,66,0.00,,,0.00,,2013-01-08 10:22:00,
2013-01-08 04:32:00,37.0,27.0,30.02,SSW,204,10.0,11.0,66,0.00,,,0.00,,2013-01-08 10:32:00,
2013-01-08 04:42:00,37.0,27.0,30.02,SSW,204,10.0,11.0,66,0.00,,,0.00,,2013-01-08 10:42:00,
2013-01-08 04:52:00,37.0,27.0,30.01,SSW,196,5.0,11.0,67,0.00,,,0.00,,2013-01-08 10:52:00,
2013-01-08 05:02:00,36.0,26.0,30.03,SSW,211,6.0,15.0,67,0.00,,,0.00,,2013-01-08 11:02:00,
2013-01-08 05:12:00,36.0,26.0,30.03,SSW,211,6.0,15.0,67,0.00,,,0.00,,2013-01-08 11:12:00,
2013-01-08 05:22:00,36.0,26.0,30.03,SSW,209,7.0,10.0,67,0.00,,,0.00,,2013-01-08 11:22:00,
2013-01-08 05:32:00,36.0,26.0,30.01,SSW,206,6.0,10.0,68,0.00,,,0.00,,2013-01-08 11:32:00,
2013-01-08 05:42:00,36.0,26.0,30.01,SSW,206,6.0,10.0,68,0.00,,,0.00,,2013-01-08 11:42:00,
2013-01-08 05:53:00,36.0,26.0,30.01,SSW,202,6.0,8.0,68,0.00,,,0.00,,2013-01-08 11:53:00,
2013-01-08 06:02:00,36.0,27.0,30.01,SSW,208,5.0,6.0,69,0.00,,,0.00,,2013-01-08 12:02:00,
2013-01-08 06:12:00,36.0,27.0,30.01,SSW,208,5.0,6.0,69,0.00,,,0.00,,2013-01-08 12:12:00,
2013-01-08 06:22:00,36.0,27.0,30.01,South,191,6.0,9.0,69,0.00,,,0.00,,2013-01-08 12:22:00,
2013-01-08 06:32:00,36.0,27.0,29.99,SSW,206,6.0,7.0,69,0.00,,,0.00,,2013-01-08 12:32:00,
2013-01-08 06:42:00,36.0,27.0,29.99,SSW,206,6.0,7.0,69,0.00,,,0.00,,2013-01-08 12:42:00,
2013-01-08 06:53:00,35.0,26.0,30.00,SSW,194,5.0,8.0,69,0.00,,,0.00,,2013-01-08 12:53:00,
2013-01-08 07:03:00,35.0,26.0,30.00,SSW,198,6.0,11.0,70,0.00,,,0.00,,2013-01-08 13:03:00,
2013-01-08 07:12:00,35.0,26.0,30.00,SSW,198,6.0,11.0,70,0.00,,,0.00,,2013-01-08 13:12:00,
2013-01-08 07:22:00,35.0,26.0,30.00,SSW,202,3.0,5.0,70,0.00,,,0.00,,2013-01-08 13:22:00,
2013-01-08 07:32:00,35.0,26.0,30.00,SSW,209,9.0,10.0,70,0.00,,,0.00,,2013-01-08 13:32:00,
2013-01-08 07:42:00,35.0,26.0,30.00,SSW,209,9.0,10.0,70,0.00,,,0.00,,2013-01-08 13:42:00,
2013-01-08 07:52:00,36.0,27.0,30.02,SSW,204,6.0,8.0,70,0.00,,,0.00,,2013-01-08 13:52:00,
2013-01-08 08:02:00,36.0,27.0,30.02,SSW,204,6.0,8.0,70,0.00,,,0.00,,2013-01-08 14:02:00,
2013-01-08 08:12:00,36.0,27.0,30.02,SSW,204,6.0,8.0,70,0.00,,,0.00,,2013-01-08 14:12:00,
2013-01-08 08:23:00,36.0,27.0,30.01,SW,215,5.0,8.0,70,0.00,,,0.00,,2013-01-08 14:23:00,
2013-01-08 08:33:00,37.0,27.0,30.01,SW,229,4.0,7.0,67,0.00,,,0.00,,2013-01-08 14:33:00,
2013-01-08 08:43:00,37.0,27.0,30.01,SW,229,4.0,7.0,67,0.00,,,0.00,,2013-01-08 14:43:00,
2013-01-08 08:53:00,38.0,28.0,30.01,SSW,196,5.0,12.0,66,0.00,,,0.00,,2013-01-08 14:53:00,
2013-01-08 09:02:00,40.0,28.0,30.02,SW,216,8.0,9.0,62,0.00,,,0.00,,2013-01-08 15:02:00,
2013-01-08 09:12:00,40.0,28.0,30.02,SW,216,8.0,9.0,62,0.00,,,0.00,,2013-01-08 15:12:00,
2013-01-08 09:22:00,39.0,27.0,30.03,SSW,201,4.0,11.0,62,0.00,,,0.00,,2013-01-08 15:22:00,
2013-01-08 09:33:00,39.0,27.0,30.03,SSW,203,6.0,8.0,62,0.00,,,0.00,,2013-01-08 15:33:00,
2013-01-08 09:42:00,39.0,27.0,30.03,SSW,203,6.0,8.0,62,0.00,,,0.00,,2013-01-08 15:42:00,
2013-01-08 09:53:00,41.0,28.0,30.02,SSW,199,6.0,9.0,60,0.00,,,0.00,,2013-01-08 15:53:00,
2013-01-08 10:03:00,44.0,28.0,30.01,SSW,201,4.0,8.0,54,0.00,,,0.00,,2013-01-08 16:03:00,
2013-01-08 10:12:00,44.0,28.0,30.01,SSW,201,4.0,8.0,54,0.00,,,0.00,,2013-01-08 16:12:00,
2013-01-08 10:22:00,43.0,28.0,30.03,SSW,212,6.0,8.0,55,0.00,,,0.00,,2013-01-08 16:22:00,
2013-01-08 10:33:00,44.0,29.0,30.02,SSW,199,5.0,11.0,55,0.00,,,0.00,,2013-01-08 16:33:00,
2013-01-08 10:42:00,44.0,29.0,30.02,SSW,199,5.0,11.0,55,0.00,,,0.00,,2013-01-08 16:42:00,
2013-01-08 10:52:00,46.0,29.0,30.02,SSW,205,5.0,8.0,51,0.00,,,0.00,,2013-01-08 16:52:00,
2013-01-08 11:03:00,47.0,29.0,30.02,SSW,213,7.0,8.0,49,0.00,,,0.00,,2013-01-08 17:03:00,
2013-01-08 11:12:00,47.0,29.0,30.02,SSW,213,7.0,8.0,49,0.00,,,0.00,,2013-01-08 17:12:00,
2013-01-08 11:23:00,48.0,29.0,30.01,SSW,204,7.0,10.0,48,0.00,,,0.00,,2013-01-08 17:23:00,
2013-01-08 11:33:00,48.0,29.0,30.01,SSW,207,7.0,11.0,47,0.00,,,0.00,,2013-01-08 17:33:00,
2013-01-08 11:43:00,48.0,29.0,30.01,SSW,207,7.0,11.0,47,0.00,,,0.00,,2013-01-08 17:43:00,
2013-01-08 11:53:00,49.0,29.0,30.01,SSW,200,5.0,10.0,46,0.00,,,0.00,,2013-01-08 17:53:00,
2013-01-08 12:03:00,50.0,29.0,29.97,SSW,199,8.0,12.0,44,0.00,,,0.00,,2013-01-08 18:03:00,
2013-01-08 12:12:00,50.0,29.0,29.97,SSW,199,8.0,12.0,44,0.00,,,0.00,,2013-01-08 18:12:00,
2013-01-08 12:23:00,50.0,29.0,29.99,South,190,6.0,15.0,44,0.00,,,0.00,,2013-01-08 18:23:00,
2013-01-08 12:33:00,50.0,28.0,29.98,SW,220,14.0,26.0,43,0.00,,,0.00,,2013-01-08 18:33:00,
2013-01-08 12:43:00,50.0,28.0,29.98,SW,220,14.0,26.0,43,0.00,,,0.00,,2013-01-08 18:43:00,
2013-01-08 12:53:00,52.0,30.0,29.96,SSW,206,5.0,13.0,43,0.00,,,0.00,,2013-01-08 18:53:00,
2013-01-08 13:03:00,52.0,30.0,29.96,SW,214,7.0,13.0,42,0.00,,,0.00,,2013-01-08 19:03:00,
2013-01-08 13:12:00,52.0,30.0,29.96,SW,214,7.0,13.0,42,0.00,,,0.00,,2013-01-08 19:12:00,
2013-01-08 13:22:00,52.0,30.0,29.96,SSW,211,7.0,12.0,43,0.00,,,0.00,,2013-01-08 19:22:00,
2013-01-08 13:32:00,52.0,30.0,29.96,SW,228,8.0,15.0,43,0.00,,,0.00,,2013-01-08 19:32:00,
2013-01-08 13:42:00,52.0,30.0,29.96,SW,228,8.0,15.0,43,0.00,,,0.00,,2013-01-08 19:42:00,
2013-01-08 13:53:00,52.0,30.0,29.96,SW,224,8.0,15.0,43,0.00,,,0.00,,2013-01-08 19:53:00,
2013-01-08 14:02:00,52.0,30.0,29.96,SSW,206,6.0,17.0,42,0.00,,,0.00,,2013-01-08 20:02:00,
2013-01-08 14:12:00,52.0,30.0,29.96,SSW,206,6.0,17.0,42,0.00,,,0.00,,2013-01-08 20:12:00,
2013-01-08 14:23:00,52.0,30.0,29.96,SW,222,11.0,12.0,42,0.00,,,0.00,,2013-01-08 20:23:00,
2013-01-08 14:33:00,52.0,29.0,29.96,SW,214,6.0,10.0,41,0.00,,,0.00,,2013-01-08 20:33:00,
2013-01-08 14:43:00,52.0,29.0,29.96,SW,214,6.0,10.0,41,0.00,,,0.00,,2013-01-08 20:43:00,
2013-01-08 14:53:00,52.0,29.0,29.97,SSW,213,9.0,13.0,41,0.00,,,0.00,,2013-01-08 20:53:00,
2013-01-08 15:02:00,51.0,29.0,29.96,SW,214,10.0,15.0,42,0.00,,,0.00,,2013-01-08 21:02:00,
2013-01-08 15:12:00,51.0,29.0,29.96,SW,214,10.0,15.0,42,0.00,,,0.00,,2013-01-08 21:12:00,
2013-01-08 15:22:00,52.0,30.0,29.96,SW,214,6.0,12.0,42,0.00,,,0.00,,2013-01-08 21:22:00,
2013-01-08 15:33:00,52.0,30.0,29.96,SSW,210,9.0,14.0,42,0.00,,,0.00,,2013-01-08 21:33:00,
2013-01-08 15:43:00,52.0,30.0,29.96,SSW,210,9.0,14.0,42,0.00,,,0.00,,2013-01-08 21:43:00,
2013-01-08 15:53:00,52.0,30.0,29.96,SSW,210,8.0,12.0,42,0.00,,,0.00,,2013-01-08 21:53:00,
2013-01-08 16:03:00,52.0,30.0,29.97,SSW,210,3.0,10.0,43,0.00,,,0.00,,2013-01-08 22:03:00,
2013-01-08 16:12:00,52.0,30.0,29.97,SSW,210,3.0,10.0,43,0.00,,,0.00,,2013-01-08 22:12:00,
2013-01-08 16:22:00,51.0,29.0,29.95,South,187,3.0,7.0,43,0.00,,,0.00,,2013-01-08 22:22:00,
2013-01-08 16:33:00,51.0,29.0,29.96,SW,214,7.0,10.0,43,0.00,,,0.00,,2013-01-08 22:33:00,
2013-01-08 16:42:00,51.0,29.0,29.96,SW,214,7.0,10.0,43,0.00,,,0.00,,2013-01-08 22:42:00,
2013-01-08 16:53:00,51.0,29.0,29.96,SW,215,6.0,13.0,43,0.00,,,0.00,,2013-01-08 22:53:00,
2013-01-08 17:02:00,50.0,29.0,29.97,SSW,193,7.0,8.0,44,0.00,,,0.00,,2013-01-08 23:02:00,
2013-01-08 17:12:00,50.0,29.0,29.97,SSW,193,7.0,8.0,44,0.00,,,0.00,,2013-01-08 23:12:00,
2013-01-08 17:22:00,50.0,29.0,29.98,SSW,201,6.0,9.0,44,0.00,,,0.00,,2013-01-08 23:22:00,
2013-01-08 17:32:00,50.0,29.0,29.98,SSW,200,3.0,10.0,44,0.00,,,0.00,,2013-01-08 23:32:00,
2013-01-08 17:43:00,50.0,29.0,29.98,SSW,200,3.0,10.0,44,0.00,,,0.00,,2013-01-08 23:43:00,
2013-01-08 17:53:00,49.0,29.0,29.99,WSW,239,8.0,8.0,46,0.00,,,0.00,,2013-01-08 23:53:00,
2013-01-08 18:02:00,48.0,29.0,30.01,SW,228,6.0,11.0,48,0.00,,,0.00,,2013-01-09 00:02:00,
2013-01-08 18:12:00,48.0,29.0,30.01,SW,228,6.0,11.0,48,0.00,,,0.00,,2013-01-09 00:12:00,
2013-01-08 18:22:00,47.0,29.0,30.03,SW,227,9.0,10.0,50,0.00,,,0.00,,2013-01-09 00:22:00,
2013-01-08 18:33:00,47.0,29.0,30.02,SSW,209,6.0,11.0,50,0.00,,,0.00,,2013-01-09 00:33:00,
2013-01-08 18:42:00,47.0,29.0,30.02,SSW,209,6.0,11.0,50,0.00,,,0.00,,2013-01-09 00:42:00,
2013-01-08 18:53:00,47.0,30.0,30.06,SW,215,8.0,8.0,51,0.00,,,0.00,,2013-01-09 00:53:00,
2013-01-08 19:02:00,46.0,29.0,30.04,SW,215,6.0,8.0,52,0.00,,,0.00,,2013-01-09 01:02:00,
2013-01-08 19:12:00,46.0,29.0,30.04,SW,215,6.0,8.0,52,0.00,,,0.00,,2013-01-09 01:12:00,
2013-01-08 19:22:00,45.0,29.0,30.05,SW,225,2.0,6.0,53,0.00,,,0.00,,2013-01-09 01:22:00,
2013-01-08 19:32:00,45.0,29.0,30.03,SW,214,5.0,8.0,54,0.00,,,0.00,,2013-01-09 01:32:00,
2013-01-08 19:42:00,45.0,29.0,30.03,SW,214,5.0,8.0,54,0.00,,,0.00,,2013-01-09 01:42:00,
2013-01-08 19:52:00,45.0,30.0,30.05,SW,222,6.0,6.0,55,0.00,,,0.00,,2013-01-09 01:52:00,
2013-01-08 20:02:00,44.0,29.0,30.08,SW,222,6.0,9.0,56,0.00,,,0.00,,2013-01-09 02:02:00,
2013-01-08 20:12:00,44.0,29.0,30.08,SW,222,6.0,9.0,56,0.00,,,0.00,,2013-01-09 02:12:00,
2013-01-08 20:22:00,44.0,30.0,30.05,SW,226,6.0,7.0,57,0.00,,,0.00,,2013-01-09 02:22:00,
2013-01-08 20:33:00,44.0,30.0,30.06,SW,224,6.0,10.0,57,0.00,,,0.00,,2013-01-09 02:33:00,
2013-01-08 20:42:00,44.0,30.0,30.06,SW,224,6.0,10.0,57,0.00,,,0.00,,2013-01-09 02:42:00,
2013-01-08 20:53:00,43.0,29.0,30.06,SW,215,4.0,6.0,58,0.00,,,0.00,,2013-01-09 02:53:00,
2013-01-08 21:03:00,43.0,29.0,30.07,SW,231,4.0,5.0,58,0.00,,,0.00,,2013-01-09 03:03:00,
2013-01-08 21:12:00,43.0,29.0,30.07,SW,231,4.0,5.0,58,0.00,,,0.00,,2013-01-09 03:12:00,
2013-01-08 21:22:00,42.0,29.0,30.09,SW,229,3.0,5.0,60,0.00,,,0.00,,2013-01-09 03:22:00,
2013-01-08 21:33:00,41.0,29.0,30.08,WSW,257,1.0,2.0,61,0.00,,,0.00,,2013-01-09 03:33:00,
2013-01-08 21:42:00,41.0,29.0,30.08,WSW,257,1.0,2.0,61,0.00,,,0.00,,2013-01-09 03:42:00,
2013-01-08 21:53:00,41.0,29.0,30.09,WNW,285,2.0,2.0,62,0.00,,,0.00,,2013-01-09 03:53:00,
2013-01-08 22:02:00,40.0,29.0,30.11,NW,325,2.0,3.0,65,0.00,,,0.00,,2013-01-09 04:02:00,
2013-01-08 22:12:00,40.0,29.0,30.11,NW,325,2.0,3.0,65,0.00,,,0.00,,2013-01-09 04:12:00,
2013-01-08 22:22:00,40.0,29.0,30.11,NW,314,2.0,3.0,64,0.00,,,0.00,,2013-01-09 04:22:00,
2013-01-08 22:32:00,39.0,28.0,30.10,WNW,290,1.0,2.0,64,0.00,,,0.00,,2013-01-09 04:32:00,
2013-01-08 22:42:00,38.0,28.0,30.12,WNW,285,1.0,3.0,66,0.00,,,0.00,,2013-01-09 04:42:00,
2013-01-08 22:52:00,38.0,28.0,30.12,WNW,285,1.0,3.0,66,0.00,,,0.00,,2013-01-09 04:52:00,
2013-01-08 23:03:00,38.0,28.0,30.13,WSW,243,0.0,3.0,66,0.00,,,0.00,,2013-01-09 05:03:00,
2013-01-08 23:12:00,38.0,28.0,30.13,WSW,243,0.0,3.0,66,0.00,,,0.00,,2013-01-09 05:12:00,
2013-01-08 23:22:00,37.0,27.0,30.13,WSW,239,0.0,2.0,66,0.00,,,0.00,,2013-01-09 05:22:00,
2013-01-08 23:33:00,36.0,26.0,30.15,WSW,244,2.0,2.0,68,0.00,,,0.00,,2013-01-09 05:33:00,
2013-01-08 23:42:00,36.0,26.0,30.15,WSW,244,2.0,2.0,68,0.00,,,0.00,,2013-01-09 05:42:00,
2013-01-08 23:52:00,36.0,27.0,30.16,WNW,284,0.0,2.0,69,0.00,,,0.00,,2013-01-09 05:52:00,